sensor_id;sensor_type;location;lat;lon;timestamp;P1;durP1;ratioP1;P2;durP2;ratioP2
35618;SDS011;21743;55.786;37.168;2022-09-01T00:02:05;0.50;;;0.20;;
35618;SDS011;21743;55.786;37.168;2022-09-01T00:04:36;0.43;;;0.20;;
35618;SDS011;21743;55.786;37.168;2022-09-01T00:07:04;1.35;;;0.30;;
35618;SDS011;21743;55.786;37.168;2022-09-01T00:09:30;0.25;;;0.20;;
35618;SDS011;21743;55.786;37.168;2022-09-01T00:11:56;0.40;;;0.20;;
35618;SDS011;21743;55.786;37.168;2022-09-01T00:14:24;0.32;;;0.20;;
35618;SDS011;21743;55.786;37.168;2022-09-01T00:16:52;0.30;;;0.20;;
35618;SDS011;21743;55.786;37.168;2022-09-01T00:19:19;0.65;;;0.25;;
35618;SDS011;21743;55.786;37.168;2022-09-01T00:21:46;1.27;;;0.50;;
35618;SDS011;21743;55.786;37.168;2022-09-01T00:24:12;1.23;;;0.32;;
35618;SDS011;21743;55.786;37.168;2022-09-01T00:26:39;0.38;;;0.25;;
35618;SDS011;21743;55.786;37.168;2022-09-01T00:29:05;0.47;;;0.20;;
35618;SDS011;21743;55.786;37.168;2022-09-01T00:31:32;0.25;;;0.20;;
35618;SDS011;21743;55.786;37.168;2022-09-01T00:33:59;0.30;;;0.20;;
35618;SDS011;21743;55.786;37.168;2022-09-01T00:36:25;0.25;;;0.20;;
35618;SDS011;21743;55.786;37.168;2022-09-01T00:38:51;0.68;;;0.20;;
35618;SDS011;21743;55.786;37.168;2022-09-01T00:41:19;0.77;;;0.20;;
35618;SDS011;21743;55.786;37.168;2022-09-01T00:43:53;0.60;;;0.30;;
35618;SDS011;21743;55.786;37.168;2022-09-01T00:46:28;0.38;;;0.20;;
35618;SDS011;21743;55.786;37.168;2022-09-01T00:49:07;0.45;;;0.20;;
35618;SDS011;21743;55.786;37.168;2022-09-01T00:51:37;0.45;;;0.20;;
35618;SDS011;21743;55.786;37.168;2022-09-01T00:54:07;1.02;;;0.30;;
35618;SDS011;21743;55.786;37.168;2022-09-01T00:56:38;0.50;;;0.20;;
35618;SDS011;21743;55.786;37.168;2022-09-01T00:59:06;0.63;;;0.20;;
35618;SDS011;21743;55.786;37.168;2022-09-01T01:01:34;0.30;;;0.20;;
35618;SDS011;21743;55.786;37.168;2022-09-01T01:04:04;0.82;;;0.30;;
35618;SDS011;21743;55.786;37.168;2022-09-01T01:06:40;0.30;;;0.20;;
35618;SDS011;21743;55.786;37.168;2022-09-01T01:09:15;0.40;;;0.20;;
35618;SDS011;21743;55.786;37.168;2022-09-01T01:11:43;0.90;;;0.15;;
35618;SDS011;21743;55.786;37.168;2022-09-01T01:14:12;0.40;;;0.20;;
35618;SDS011;21743;55.786;37.168;2022-09-01T01:16:43;0.82;;;0.30;;
35618;SDS011;21743;55.786;37.168;2022-09-01T01:19:13;1.02;;;0.25;;
35618;SDS011;21743;55.786;37.168;2022-09-01T01:22:07;0.43;;;0.20;;
35618;SDS011;21743;55.786;37.168;2022-09-01T01:25:00;1.23;;;0.30;;
35618;SDS011;21743;55.786;37.168;2022-09-01T01:27:32;0.50;;;0.30;;
35618;SDS011;21743;55.786;37.168;2022-09-01T01:30:00;1.02;;;0.50;;
35618;SDS011;21743;55.786;37.168;2022-09-01T01:32:29;0.43;;;0.20;;
35618;SDS011;21743;55.786;37.168;2022-09-01T01:34:57;0.40;;;0.20;;
35618;SDS011;21743;55.786;37.168;2022-09-01T01:37:24;0.43;;;0.20;;
35618;SDS011;21743;55.786;37.168;2022-09-01T01:39:51;1.15;;;0.30;;
35618;SDS011;21743;55.786;37.168;2022-09-01T01:42:17;0.70;;;0.30;;
35618;SDS011;21743;55.786;37.168;2022-09-01T01:44:44;0.38;;;0.30;;
35618;SDS011;21743;55.786;37.168;2022-09-01T01:47:13;0.88;;;0.40;;
35618;SDS011;21743;55.786;37.168;2022-09-01T01:49:42;0.75;;;0.30;;
35618;SDS011;21743;55.786;37.168;2022-09-01T01:52:12;0.45;;;0.20;;
35618;SDS011;21743;55.786;37.168;2022-09-01T01:54:43;1.20;;;0.30;;
35618;SDS011;21743;55.786;37.168;2022-09-01T01:57:11;1.80;;;0.30;;
35618;SDS011;21743;55.786;37.168;2022-09-01T01:59:41;0.68;;;0.35;;
35618;SDS011;21743;55.786;37.168;2022-09-01T02:02:07;1.25;;;0.30;;
35618;SDS011;21743;55.786;37.168;2022-09-01T02:04:34;3.05;;;0.93;;
35618;SDS011;21743;55.786;37.168;2022-09-01T02:07:09;1.05;;;0.38;;
35618;SDS011;21743;55.786;37.168;2022-09-01T02:09:37;1.10;;;0.22;;
35618;SDS011;21743;55.786;37.168;2022-09-01T02:12:06;0.60;;;0.30;;
35618;SDS011;21743;55.786;37.168;2022-09-01T02:14:33;1.25;;;0.30;;
35618;SDS011;21743;55.786;37.168;2022-09-01T02:16:59;1.65;;;0.30;;
35618;SDS011;21743;55.786;37.168;2022-09-01T02:19:26;0.32;;;0.30;;
35618;SDS011;21743;55.786;37.168;2022-09-01T02:21:52;1.08;;;0.40;;
35618;SDS011;21743;55.786;37.168;2022-09-01T02:24:22;0.70;;;0.30;;
35618;SDS011;21743;55.786;37.168;2022-09-01T02:26:49;0.82;;;0.30;;
35618;SDS011;21743;55.786;37.168;2022-09-01T02:29:18;0.82;;;0.40;;
35618;SDS011;21743;55.786;37.168;2022-09-01T02:31:47;1.58;;;0.22;;
35618;SDS011;21743;55.786;37.168;2022-09-01T02:34:16;0.55;;;0.35;;
35618;SDS011;21743;55.786;37.168;2022-09-01T02:36:49;0.55;;;0.50;;
35618;SDS011;21743;55.786;37.168;2022-09-01T02:39:23;0.75;;;0.38;;
35618;SDS011;21743;55.786;37.168;2022-09-01T02:41:53;0.90;;;0.40;;
35618;SDS011;21743;55.786;37.168;2022-09-01T02:44:24;0.82;;;0.50;;
35618;SDS011;21743;55.786;37.168;2022-09-01T02:46:52;0.52;;;0.30;;
35618;SDS011;21743;55.786;37.168;2022-09-01T02:49:21;0.90;;;0.30;;
35618;SDS011;21743;55.786;37.168;2022-09-01T02:54:23;0.63;;;0.40;;
35618;SDS011;21743;55.786;37.168;2022-09-01T02:56:49;0.88;;;0.30;;
35618;SDS011;21743;55.786;37.168;2022-09-01T02:59:20;0.40;;;0.20;;
35618;SDS011;21743;55.786;37.168;2022-09-01T03:01:49;0.57;;;0.30;;
35618;SDS011;21743;55.786;37.168;2022-09-01T03:04:17;0.75;;;0.40;;
35618;SDS011;21743;55.786;37.168;2022-09-01T03:06:43;0.40;;;0.30;;
35618;SDS011;21743;55.786;37.168;2022-09-01T03:09:13;0.50;;;0.28;;
35618;SDS011;21743;55.786;37.168;2022-09-01T03:11:41;0.85;;;0.30;;
35618;SDS011;21743;55.786;37.168;2022-09-01T03:14:09;1.23;;;0.30;;
35618;SDS011;21743;55.786;37.168;2022-09-01T03:16:37;0.47;;;0.40;;
35618;SDS011;21743;55.786;37.168;2022-09-01T03:19:04;0.40;;;0.30;;
35618;SDS011;21743;55.786;37.168;2022-09-01T03:24:04;0.47;;;0.30;;
35618;SDS011;21743;55.786;37.168;2022-09-01T03:26:30;0.63;;;0.30;;
35618;SDS011;21743;55.786;37.168;2022-09-01T03:28:56;0.93;;;0.30;;
35618;SDS011;21743;55.786;37.168;2022-09-01T03:31:23;1.55;;;0.40;;
35618;SDS011;21743;55.786;37.168;2022-09-01T03:33:55;0.82;;;0.38;;
35618;SDS011;21743;55.786;37.168;2022-09-01T03:36:27;0.90;;;0.30;;
35618;SDS011;21743;55.786;37.168;2022-09-01T03:38:55;0.98;;;0.22;;
35618;SDS011;21743;55.786;37.168;2022-09-01T03:41:24;1.23;;;0.30;;
35618;SDS011;21743;55.786;37.168;2022-09-01T03:43:53;0.40;;;0.20;;
35618;SDS011;21743;55.786;37.168;2022-09-01T03:46:23;0.45;;;0.25;;
35618;SDS011;21743;55.786;37.168;2022-09-01T03:48:55;0.30;;;0.20;;
35618;SDS011;21743;55.786;37.168;2022-09-01T03:51:31;0.70;;;0.30;;
35618;SDS011;21743;55.786;37.168;2022-09-01T03:53:59;0.80;;;0.30;;
35618;SDS011;21743;55.786;37.168;2022-09-01T03:56:26;0.15;;;0.10;;
35618;SDS011;21743;55.786;37.168;2022-09-01T03:58:53;1.27;;;0.20;;
35618;SDS011;21743;55.786;37.168;2022-09-01T04:01:22;0.40;;;0.30;;
35618;SDS011;21743;55.786;37.168;2022-09-01T04:03:49;0.40;;;0.30;;
35618;SDS011;21743;55.786;37.168;2022-09-01T04:06:18;0.40;;;0.20;;
35618;SDS011;21743;55.786;37.168;2022-09-01T04:08:46;0.60;;;0.20;;
35618;SDS011;21743;55.786;37.168;2022-09-01T04:11:13;0.40;;;0.20;;
35618;SDS011;21743;55.786;37.168;2022-09-01T04:13:44;0.30;;;0.20;;
35618;SDS011;21743;55.786;37.168;2022-09-01T04:19:05;0.43;;;0.25;;
35618;SDS011;21743;55.786;37.168;2022-09-01T04:21:44;0.35;;;0.20;;
35618;SDS011;21743;55.786;37.168;2022-09-01T04:24:12;0.77;;;0.20;;
35618;SDS011;21743;55.786;37.168;2022-09-01T04:26:40;0.47;;;0.30;;
35618;SDS011;21743;55.786;37.168;2022-09-01T04:29:07;0.50;;;0.20;;
35618;SDS011;21743;55.786;37.168;2022-09-01T04:31:35;0.28;;;0.20;;
35618;SDS011;21743;55.786;37.168;2022-09-01T04:34:03;0.20;;;0.20;;
35618;SDS011;21743;55.786;37.168;2022-09-01T04:36:36;1.65;;;0.30;;
35618;SDS011;21743;55.786;37.168;2022-09-01T04:39:03;0.60;;;0.20;;
35618;SDS011;21743;55.786;37.168;2022-09-01T04:41:33;0.57;;;0.30;;
35618;SDS011;21743;55.786;37.168;2022-09-01T04:44:04;0.50;;;0.30;;
35618;SDS011;21743;55.786;37.168;2022-09-01T04:46:36;1.50;;;0.30;;
35618;SDS011;21743;55.786;37.168;2022-09-01T04:49:08;0.50;;;0.30;;
35618;SDS011;21743;55.786;37.168;2022-09-01T04:51:40;1.50;;;0.30;;
35618;SDS011;21743;55.786;37.168;2022-09-01T04:56:42;1.48;;;0.30;;
35618;SDS011;21743;55.786;37.168;2022-09-01T04:59:14;0.43;;;0.20;;
35618;SDS011;21743;55.786;37.168;2022-09-01T05:01:46;1.23;;;0.57;;
35618;SDS011;21743;55.786;37.168;2022-09-01T05:04:18;0.95;;;0.50;;
35618;SDS011;21743;55.786;37.168;2022-09-01T05:06:48;1.63;;;0.50;;
35618;SDS011;21743;55.786;37.168;2022-09-01T05:09:18;0.52;;;0.32;;
35618;SDS011;21743;55.786;37.168;2022-09-01T05:12:01;0.85;;;0.50;;
35618;SDS011;21743;55.786;37.168;2022-09-01T05:14:40;1.50;;;0.60;;
35618;SDS011;21743;55.786;37.168;2022-09-01T05:17:10;0.43;;;0.30;;
35618;SDS011;21743;55.786;37.168;2022-09-01T05:19:38;0.50;;;0.30;;
35618;SDS011;21743;55.786;37.168;2022-09-01T05:22:05;2.40;;;0.22;;
35618;SDS011;21743;55.786;37.168;2022-09-01T05:24:34;0.50;;;0.28;;
35618;SDS011;21743;55.786;37.168;2022-09-01T05:27:03;1.33;;;0.40;;
35618;SDS011;21743;55.786;37.168;2022-09-01T05:29:33;0.57;;;0.38;;
35618;SDS011;21743;55.786;37.168;2022-09-01T05:32:04;0.50;;;0.22;;
35618;SDS011;21743;55.786;37.168;2022-09-01T05:34:35;0.30;;;0.20;;
35618;SDS011;21743;55.786;37.168;2022-09-01T05:37:04;0.70;;;0.30;;
35618;SDS011;21743;55.786;37.168;2022-09-01T05:39:35;1.08;;;0.32;;
35618;SDS011;21743;55.786;37.168;2022-09-01T05:42:03;0.32;;;0.30;;
35618;SDS011;21743;55.786;37.168;2022-09-01T05:44:34;2.40;;;2.17;;
35618;SDS011;21743;55.786;37.168;2022-09-01T05:47:01;0.70;;;0.50;;
35618;SDS011;21743;55.786;37.168;2022-09-01T05:49:28;1.90;;;1.00;;
35618;SDS011;21743;55.786;37.168;2022-09-01T05:51:56;3.13;;;1.50;;
35618;SDS011;21743;55.786;37.168;2022-09-01T05:54:24;0.95;;;0.60;;
35618;SDS011;21743;55.786;37.168;2022-09-01T05:56:53;0.70;;;0.35;;
35618;SDS011;21743;55.786;37.168;2022-09-01T05:59:26;0.73;;;0.35;;
35618;SDS011;21743;55.786;37.168;2022-09-01T06:02:00;0.52;;;0.22;;
35618;SDS011;21743;55.786;37.168;2022-09-01T06:04:27;0.93;;;0.30;;
35618;SDS011;21743;55.786;37.168;2022-09-01T06:07:00;0.40;;;0.30;;
35618;SDS011;21743;55.786;37.168;2022-09-01T06:09:29;0.55;;;0.20;;
35618;SDS011;21743;55.786;37.168;2022-09-01T06:11:56;1.13;;;0.30;;
35618;SDS011;21743;55.786;37.168;2022-09-01T06:14:24;0.98;;;0.30;;
35618;SDS011;21743;55.786;37.168;2022-09-01T06:16:51;0.28;;;0.20;;
35618;SDS011;21743;55.786;37.168;2022-09-01T06:19:18;0.50;;;0.30;;
35618;SDS011;21743;55.786;37.168;2022-09-01T06:21:46;0.65;;;0.30;;
35618;SDS011;21743;55.786;37.168;2022-09-01T06:24:13;0.47;;;0.30;;
35618;SDS011;21743;55.786;37.168;2022-09-01T06:26:39;1.40;;;0.30;;
35618;SDS011;21743;55.786;37.168;2022-09-01T06:29:07;0.70;;;0.30;;
35618;SDS011;21743;55.786;37.168;2022-09-01T06:31:44;0.90;;;0.30;;
35618;SDS011;21743;55.786;37.168;2022-09-01T06:34:12;0.30;;;0.20;;
35618;SDS011;21743;55.786;37.168;2022-09-01T06:36:42;0.32;;;0.30;;
35618;SDS011;21743;55.786;37.168;2022-09-01T06:39:11;0.95;;;0.30;;
35618;SDS011;21743;55.786;37.168;2022-09-01T06:41:46;0.88;;;0.30;;
35618;SDS011;21743;55.786;37.168;2022-09-01T06:44:15;0.35;;;0.22;;
35618;SDS011;21743;55.786;37.168;2022-09-01T06:46:52;0.50;;;0.30;;
35618;SDS011;21743;55.786;37.168;2022-09-01T06:49:18;0.32;;;0.20;;
35618;SDS011;21743;55.786;37.168;2022-09-01T06:51:47;1.63;;;0.20;;
35618;SDS011;21743;55.786;37.168;2022-09-01T06:54:16;0.20;;;0.10;;
35618;SDS011;21743;55.786;37.168;2022-09-01T06:56:45;0.45;;;0.20;;
35618;SDS011;21743;55.786;37.168;2022-09-01T06:59:11;0.52;;;0.28;;
35618;SDS011;21743;55.786;37.168;2022-09-01T07:01:42;1.17;;;0.30;;
35618;SDS011;21743;55.786;37.168;2022-09-01T07:04:07;0.35;;;0.20;;
35618;SDS011;21743;55.786;37.168;2022-09-01T07:06:43;0.40;;;0.30;;
35618;SDS011;21743;55.786;37.168;2022-09-01T07:09:15;0.55;;;0.30;;
35618;SDS011;21743;55.786;37.168;2022-09-01T07:11:54;0.47;;;0.20;;
35618;SDS011;21743;55.786;37.168;2022-09-01T07:14:21;1.08;;;0.10;;
35618;SDS011;21743;55.786;37.168;2022-09-01T07:16:47;0.13;;;0.10;;
35618;SDS011;21743;55.786;37.168;2022-09-01T07:19:13;1.70;;;0.20;;
35618;SDS011;21743;55.786;37.168;2022-09-01T07:22:06;0.40;;;0.20;;
35618;SDS011;21743;55.786;37.168;2022-09-01T07:24:32;0.88;;;0.15;;
35618;SDS011;21743;55.786;37.168;2022-09-01T07:27:29;0.20;;;0.20;;
35618;SDS011;21743;55.786;37.168;2022-09-01T07:29:55;0.25;;;0.10;;
35618;SDS011;21743;55.786;37.168;2022-09-01T07:32:22;2.08;;;0.10;;
35618;SDS011;21743;55.786;37.168;2022-09-01T07:34:48;0.73;;;0.10;;
35618;SDS011;21743;55.786;37.168;2022-09-01T07:37:15;0.63;;;0.30;;
35618;SDS011;21743;55.786;37.168;2022-09-01T07:39:44;0.77;;;0.20;;
35618;SDS011;21743;55.786;37.168;2022-09-01T07:42:29;0.60;;;0.20;;
35618;SDS011;21743;55.786;37.168;2022-09-01T07:45:14;0.32;;;0.20;;
35618;SDS011;21743;55.786;37.168;2022-09-01T07:48:01;0.57;;;0.20;;
35618;SDS011;21743;55.786;37.168;2022-09-01T07:50:35;0.40;;;0.20;;
35618;SDS011;21743;55.786;37.168;2022-09-01T07:53:06;0.30;;;0.20;;
35618;SDS011;21743;55.786;37.168;2022-09-01T07:55:33;0.35;;;0.20;;
35618;SDS011;21743;55.786;37.168;2022-09-01T07:58:00;1.30;;;0.30;;
35618;SDS011;21743;55.786;37.168;2022-09-01T08:00:27;0.20;;;0.10;;
35618;SDS011;21743;55.786;37.168;2022-09-01T08:02:58;0.50;;;0.20;;
35618;SDS011;21743;55.786;37.168;2022-09-01T08:05:24;0.98;;;0.20;;
35618;SDS011;21743;55.786;37.168;2022-09-01T08:07:51;1.77;;;0.20;;
35618;SDS011;21743;55.786;37.168;2022-09-01T08:10:21;0.57;;;0.30;;
35618;SDS011;21743;55.786;37.168;2022-09-01T08:12:48;0.95;;;0.40;;
35618;SDS011;21743;55.786;37.168;2022-09-01T08:15:14;0.65;;;0.22;;
35618;SDS011;21743;55.786;37.168;2022-09-01T08:17:43;0.45;;;0.20;;
35618;SDS011;21743;55.786;37.168;2022-09-01T08:20:11;0.40;;;0.20;;
35618;SDS011;21743;55.786;37.168;2022-09-01T08:22:52;0.45;;;0.20;;
35618;SDS011;21743;55.786;37.168;2022-09-01T08:25:31;0.47;;;0.20;;
35618;SDS011;21743;55.786;37.168;2022-09-01T08:27:58;0.40;;;0.10;;
35618;SDS011;21743;55.786;37.168;2022-09-01T08:30:25;0.35;;;0.20;;
35618;SDS011;21743;55.786;37.168;2022-09-01T08:32:52;0.20;;;0.10;;
35618;SDS011;21743;55.786;37.168;2022-09-01T08:35:18;1.65;;;0.20;;
35618;SDS011;21743;55.786;37.168;2022-09-01T08:37:43;0.30;;;0.20;;
35618;SDS011;21743;55.786;37.168;2022-09-01T08:40:11;1.55;;;0.20;;
35618;SDS011;21743;55.786;37.168;2022-09-01T08:45:35;0.30;;;0.10;;
35618;SDS011;21743;55.786;37.168;2022-09-01T08:48:18;0.60;;;0.20;;
35618;SDS011;21743;55.786;37.168;2022-09-01T08:50:51;0.50;;;0.30;;
35618;SDS011;21743;55.786;37.168;2022-09-01T08:53:36;0.40;;;0.20;;
35618;SDS011;21743;55.786;37.168;2022-09-01T08:56:09;1.95;;;0.20;;
35618;SDS011;21743;55.786;37.168;2022-09-01T08:58:36;0.25;;;0.20;;
35618;SDS011;21743;55.786;37.168;2022-09-01T09:04:22;2.72;;;0.20;;
35618;SDS011;21743;55.786;37.168;2022-09-01T09:06:55;0.60;;;0.20;;
35618;SDS011;21743;55.786;37.168;2022-09-01T09:10:24;0.40;;;0.20;;
35618;SDS011;21743;55.786;37.168;2022-09-01T09:12:48;0.40;;;0.20;;
35618;SDS011;21743;55.786;37.168;2022-09-01T09:18:36;0.63;;;0.20;;
35618;SDS011;21743;55.786;37.168;2022-09-01T09:21:07;0.32;;;0.10;;
35618;SDS011;21743;55.786;37.168;2022-09-01T09:23:42;2.38;;;0.20;;
35618;SDS011;21743;55.786;37.168;2022-09-01T09:26:11;0.60;;;0.20;;
35618;SDS011;21743;55.786;37.168;2022-09-01T09:28:37;0.28;;;0.10;;
35618;SDS011;21743;55.786;37.168;2022-09-01T09:33:55;0.40;;;0.20;;
35618;SDS011;21743;55.786;37.168;2022-09-01T09:36:32;0.50;;;0.20;;
35618;SDS011;21743;55.786;37.168;2022-09-01T09:39:11;0.60;;;0.20;;
35618;SDS011;21743;55.786;37.168;2022-09-01T09:41:40;0.28;;;0.20;;
35618;SDS011;21743;55.786;37.168;2022-09-01T09:44:26;0.30;;;0.20;;
35618;SDS011;21743;55.786;37.168;2022-09-01T09:46:55;1.15;;;0.17;;
35618;SDS011;21743;55.786;37.168;2022-09-01T09:49:26;0.80;;;0.20;;
35618;SDS011;21743;55.786;37.168;2022-09-01T09:57:03;1.15;;;0.20;;
35618;SDS011;21743;55.786;37.168;2022-09-01T09:59:34;0.25;;;0.10;;
35618;SDS011;21743;55.786;37.168;2022-09-01T10:04:58;0.43;;;0.20;;
35618;SDS011;21743;55.786;37.168;2022-09-01T10:07:35;0.70;;;0.20;;
35618;SDS011;21743;55.786;37.168;2022-09-01T10:10:06;1.20;;;0.20;;
35618;SDS011;21743;55.786;37.168;2022-09-01T10:12:53;0.43;;;0.20;;
35618;SDS011;21743;55.786;37.168;2022-09-01T10:15:24;0.40;;;0.22;;
35618;SDS011;21743;55.786;37.168;2022-09-01T10:17:53;1.08;;;0.40;;
35618;SDS011;21743;55.786;37.168;2022-09-01T10:20:24;1.40;;;0.50;;
35618;SDS011;21743;55.786;37.168;2022-09-01T10:22:51;0.98;;;0.40;;
35618;SDS011;21743;55.786;37.168;2022-09-01T10:25:27;0.63;;;0.30;;
35618;SDS011;21743;55.786;37.168;2022-09-01T10:28:00;1.45;;;0.30;;
35618;SDS011;21743;55.786;37.168;2022-09-01T10:30:35;1.23;;;0.30;;
35618;SDS011;21743;55.786;37.168;2022-09-01T10:33:07;0.70;;;0.30;;
35618;SDS011;21743;55.786;37.168;2022-09-01T10:35:35;0.30;;;0.20;;
35618;SDS011;21743;55.786;37.168;2022-09-01T10:38:05;0.57;;;0.20;;
35618;SDS011;21743;55.786;37.168;2022-09-01T10:40:41;0.95;;;0.20;;
35618;SDS011;21743;55.786;37.168;2022-09-01T10:46:06;0.20;;;0.20;;
35618;SDS011;21743;55.786;37.168;2022-09-01T10:48:54;0.40;;;0.20;;
35618;SDS011;21743;55.786;37.168;2022-09-01T10:53:47;0.60;;;0.40;;
35618;SDS011;21743;55.786;37.168;2022-09-01T11:06:57;0.50;;;0.22;;
35618;SDS011;21743;55.786;37.168;2022-09-01T11:09:33;0.60;;;0.17;;
35618;SDS011;21743;55.786;37.168;2022-09-01T11:15:04;0.40;;;0.20;;
35618;SDS011;21743;55.786;37.168;2022-09-01T11:20:28;0.50;;;0.20;;
35618;SDS011;21743;55.786;37.168;2022-09-01T11:35:59;1.52;;;0.28;;
35618;SDS011;21743;55.786;37.168;2022-09-01T11:38:37;0.40;;;0.20;;
35618;SDS011;21743;55.786;37.168;2022-09-01T11:41:27;1.33;;;0.20;;
35618;SDS011;21743;55.786;37.168;2022-09-01T11:43:59;1.85;;;0.30;;
35618;SDS011;21743;55.786;37.168;2022-09-01T11:46:31;0.52;;;0.22;;
35618;SDS011;21743;55.786;37.168;2022-09-01T11:49:00;0.75;;;0.22;;
35618;SDS011;21743;55.786;37.168;2022-09-01T11:51:43;0.52;;;0.20;;
35618;SDS011;21743;55.786;37.168;2022-09-01T11:54:11;1.70;;;0.25;;
35618;SDS011;21743;55.786;37.168;2022-09-01T11:56:38;0.70;;;0.20;;
35618;SDS011;21743;55.786;37.168;2022-09-01T11:59:04;1.85;;;0.22;;
35618;SDS011;21743;55.786;37.168;2022-09-01T12:01:31;0.43;;;0.20;;
35618;SDS011;21743;55.786;37.168;2022-09-01T12:04:19;1.30;;;0.30;;
35618;SDS011;21743;55.786;37.168;2022-09-01T12:06:53;1.75;;;0.40;;
35618;SDS011;21743;55.786;37.168;2022-09-01T12:09:21;0.68;;;0.30;;
35618;SDS011;21743;55.786;37.168;2022-09-01T12:11:47;0.50;;;0.30;;
35618;SDS011;21743;55.786;37.168;2022-09-01T12:14:18;0.50;;;0.30;;
35618;SDS011;21743;55.786;37.168;2022-09-01T12:16:57;1.30;;;1.20;;
35618;SDS011;21743;55.786;37.168;2022-09-01T12:19:28;3.30;;;1.98;;
35618;SDS011;21743;55.786;37.168;2022-09-01T12:22:01;2.40;;;1.50;;
35618;SDS011;21743;55.786;37.168;2022-09-01T12:24:42;8.70;;;7.22;;
35618;SDS011;21743;55.786;37.168;2022-09-01T12:27:10;21.60;;;13.32;;
35618;SDS011;21743;55.786;37.168;2022-09-01T12:29:37;56.90;;;36.55;;
35618;SDS011;21743;55.786;37.168;2022-09-01T12:32:04;68.35;;;33.88;;
35618;SDS011;21743;55.786;37.168;2022-09-01T12:34:43;24.27;;;13.15;;
35618;SDS011;21743;55.786;37.168;2022-09-01T12:39:42;5.97;;;2.88;;
35618;SDS011;21743;55.786;37.168;2022-09-01T12:47:13;2.50;;;1.73;;
35618;SDS011;21743;55.786;37.168;2022-09-01T12:50:05;6.68;;;3.55;;
35618;SDS011;21743;55.786;37.168;2022-09-01T12:52:52;3.35;;;1.98;;
35618;SDS011;21743;55.786;37.168;2022-09-01T12:55:24;11.02;;;5.18;;
35618;SDS011;21743;55.786;37.168;2022-09-01T12:57:52;7.53;;;3.72;;
35618;SDS011;21743;55.786;37.168;2022-09-01T13:00:27;6.28;;;3.00;;
35618;SDS011;21743;55.786;37.168;2022-09-01T13:07:59;15.30;;;9.20;;
35618;SDS011;21743;55.786;37.168;2022-09-01T13:10:30;5.53;;;3.50;;
35618;SDS011;21743;55.786;37.168;2022-09-01T13:12:58;18.35;;;12.65;;
35618;SDS011;21743;55.786;37.168;2022-09-01T13:15:26;16.58;;;10.25;;
35618;SDS011;21743;55.786;37.168;2022-09-01T13:17:52;5.25;;;3.60;;
35618;SDS011;21743;55.786;37.168;2022-09-01T13:20:18;5.38;;;3.28;;
35618;SDS011;21743;55.786;37.168;2022-09-01T13:22:44;5.60;;;3.60;;
35618;SDS011;21743;55.786;37.168;2022-09-01T13:25:11;4.50;;;2.45;;
35618;SDS011;21743;55.786;37.168;2022-09-01T13:27:38;7.18;;;4.65;;
35618;SDS011;21743;55.786;37.168;2022-09-01T13:30:09;1.55;;;1.17;;
35618;SDS011;21743;55.786;37.168;2022-09-01T13:32:37;1.33;;;0.93;;
35618;SDS011;21743;55.786;37.168;2022-09-01T13:35:03;3.15;;;1.77;;
35618;SDS011;21743;55.786;37.168;2022-09-01T13:37:29;4.90;;;2.83;;
35618;SDS011;21743;55.786;37.168;2022-09-01T13:39:55;36.83;;;24.23;;
35618;SDS011;21743;55.786;37.168;2022-09-01T13:42:21;11.30;;;8.25;;
35618;SDS011;21743;55.786;37.168;2022-09-01T13:44:47;8.57;;;5.40;;
35618;SDS011;21743;55.786;37.168;2022-09-01T13:47:12;4.85;;;1.80;;
35618;SDS011;21743;55.786;37.168;2022-09-01T13:49:38;4.95;;;2.63;;
35618;SDS011;21743;55.786;37.168;2022-09-01T13:52:04;9.27;;;4.80;;
35618;SDS011;21743;55.786;37.168;2022-09-01T13:54:31;6.20;;;3.42;;
35618;SDS011;21743;55.786;37.168;2022-09-01T13:56:57;3.75;;;2.15;;
35618;SDS011;21743;55.786;37.168;2022-09-01T13:59:23;2.75;;;1.33;;
35618;SDS011;21743;55.786;37.168;2022-09-01T14:01:49;10.10;;;3.95;;
35618;SDS011;21743;55.786;37.168;2022-09-01T14:04:15;5.85;;;3.33;;
35618;SDS011;21743;55.786;37.168;2022-09-01T14:06:43;4.47;;;1.98;;
35618;SDS011;21743;55.786;37.168;2022-09-01T14:09:09;6.32;;;2.90;;
35618;SDS011;21743;55.786;37.168;2022-09-01T14:11:36;4.35;;;2.00;;
35618;SDS011;21743;55.786;37.168;2022-09-01T14:14:02;7.65;;;4.88;;
35618;SDS011;21743;55.786;37.168;2022-09-01T14:16:28;3.97;;;2.70;;
35618;SDS011;21743;55.786;37.168;2022-09-01T14:18:54;2.33;;;1.45;;
35618;SDS011;21743;55.786;37.168;2022-09-01T14:21:19;9.63;;;6.40;;
35618;SDS011;21743;55.786;37.168;2022-09-01T14:23:45;18.98;;;11.68;;
35618;SDS011;21743;55.786;37.168;2022-09-01T14:26:12;13.07;;;7.45;;
35618;SDS011;21743;55.786;37.168;2022-09-01T14:28:40;27.75;;;17.10;;
35618;SDS011;21743;55.786;37.168;2022-09-01T14:31:12;19.48;;;11.63;;
35618;SDS011;21743;55.786;37.168;2022-09-01T14:33:40;15.43;;;9.30;;
35618;SDS011;21743;55.786;37.168;2022-09-01T14:36:06;13.43;;;7.50;;
35618;SDS011;21743;55.786;37.168;2022-09-01T14:38:33;9.15;;;4.80;;
35618;SDS011;21743;55.786;37.168;2022-09-01T14:41:00;7.35;;;3.83;;
35618;SDS011;21743;55.786;37.168;2022-09-01T14:43:26;7.70;;;5.47;;
35618;SDS011;21743;55.786;37.168;2022-09-01T14:46:05;12.18;;;6.95;;
35618;SDS011;21743;55.786;37.168;2022-09-01T14:48:34;9.70;;;6.00;;
35618;SDS011;21743;55.786;37.168;2022-09-01T14:51:00;6.97;;;4.10;;
35618;SDS011;21743;55.786;37.168;2022-09-01T14:53:27;3.80;;;2.58;;
35618;SDS011;21743;55.786;37.168;2022-09-01T14:55:58;6.47;;;2.92;;
35618;SDS011;21743;55.786;37.168;2022-09-01T14:58:26;11.30;;;4.57;;
35618;SDS011;21743;55.786;37.168;2022-09-01T15:00:55;7.22;;;3.47;;
35618;SDS011;21743;55.786;37.168;2022-09-01T15:03:22;7.15;;;3.28;;
35618;SDS011;21743;55.786;37.168;2022-09-01T15:05:50;5.55;;;2.17;;
35618;SDS011;21743;55.786;37.168;2022-09-01T15:08:19;9.13;;;2.83;;
35618;SDS011;21743;55.786;37.168;2022-09-01T15:10:46;7.10;;;2.55;;
35618;SDS011;21743;55.786;37.168;2022-09-01T15:13:12;6.05;;;2.03;;
35618;SDS011;21743;55.786;37.168;2022-09-01T15:15:38;4.43;;;2.05;;
35618;SDS011;21743;55.786;37.168;2022-09-01T15:18:04;4.90;;;1.55;;
35618;SDS011;21743;55.786;37.168;2022-09-01T15:20:30;3.92;;;1.58;;
35618;SDS011;21743;55.786;37.168;2022-09-01T15:25:41;10.40;;;7.13;;
35618;SDS011;21743;55.786;37.168;2022-09-01T15:28:07;5.28;;;2.40;;
35618;SDS011;21743;55.786;37.168;2022-09-01T15:30:34;3.55;;;1.50;;
35618;SDS011;21743;55.786;37.168;2022-09-01T15:33:01;8.63;;;3.50;;
35618;SDS011;21743;55.786;37.168;2022-09-01T15:35:28;5.95;;;2.90;;
35618;SDS011;21743;55.786;37.168;2022-09-01T15:37:54;6.90;;;3.50;;
35618;SDS011;21743;55.786;37.168;2022-09-01T15:40:21;5.57;;;2.60;;
35618;SDS011;21743;55.786;37.168;2022-09-01T15:42:47;4.72;;;2.72;;
35618;SDS011;21743;55.786;37.168;2022-09-01T15:45:14;5.22;;;3.22;;
35618;SDS011;21743;55.786;37.168;2022-09-01T15:47:42;9.65;;;6.13;;
35618;SDS011;21743;55.786;37.168;2022-09-01T15:50:10;10.05;;;5.88;;
35618;SDS011;21743;55.786;37.168;2022-09-01T15:55:14;8.00;;;5.25;;
35618;SDS011;21743;55.786;37.168;2022-09-01T15:57:43;8.02;;;4.30;;
35618;SDS011;21743;55.786;37.168;2022-09-01T16:00:09;8.77;;;4.50;;
35618;SDS011;21743;55.786;37.168;2022-09-01T16:02:37;5.55;;;2.72;;
35618;SDS011;21743;55.786;37.168;2022-09-01T16:05:03;18.98;;;10.07;;
35618;SDS011;21743;55.786;37.168;2022-09-01T16:07:30;10.32;;;6.53;;
35618;SDS011;21743;55.786;37.168;2022-09-01T16:09:55;5.05;;;3.17;;
35618;SDS011;21743;55.786;37.168;2022-09-01T16:12:23;9.23;;;6.22;;
35618;SDS011;21743;55.786;37.168;2022-09-01T16:14:51;6.90;;;4.60;;